Time;durP1;ratioP1;P1;durP2;ratioP2;P2;SDS_P1;SDS_P2;PMS_P1;PMS_P2;Temp;Humidity;BMP_temperature;BMP_pressure;BME280_temperature;BME280_humidity;BME280_pressure;Samples;Min_cycle;Max_cycle;Signal;HPM_P1;HPM_P2
2023/01/21 00:02:05;;;;;;;;;;;1.20;99.90;;;;;;5001698;28;19916;-78
2023/01/21 00:04:33;;;;;;;;;;;1.10;99.90;;;;;;4985103;28;20110;-79
2023/01/21 00:06:59;;;;;;;;;;;1.00;99.90;;;;;;5001012;28;20015;-79
2023/01/21 00:09:27;;;;;;;;;;;0.90;99.90;;;;;;5001969;28;20507;-78
2023/01/21 00:11:56;;;;;;;;;;;1.00;99.90;;;;;;4999660;28;19910;-79
2023/01/21 00:14:21;;;;;;;;;;;1.00;99.90;;;;;;4982631;28;19909;-79
2023/01/21 00:16:47;;;;;;;;;;;0.80;99.90;;;;;;5000663;28;19920;-78
2023/01/21 00:19:13;;;;;;;;;;;2.90;99.90;;;;;;5000294;28;20449;-78
2023/01/21 00:21:38;;;;;;;;;;;0.70;99.90;;;;;;5001081;28;19909;-78
2023/01/21 00:24:04;;;;;;;;;;;0.70;99.90;;;;;;4982083;28;19921;-79
2023/01/21 00:26:30;;;;;;;;;;;0.70;99.90;;;;;;5000840;28;19909;-79
2023/01/21 00:28:56;;;;;;;;;;;0.60;99.90;;;;;;5001564;28;19932;-78
2023/01/21 00:31:21;;;;;;;;;;;0.60;99.90;;;;;;5000291;28;19920;-78
2023/01/21 00:33:47;;;;;;;;;;;-1.40;99.90;;;;;;4984454;28;19916;-79
2023/01/21 00:36:17;;;;;;;;;;;0.80;99.90;;;;;;5003180;28;19918;-78
2023/01/21 00:38:43;;;;;;;;;;;0.90;99.90;;;;;;5004005;28;19925;-79
2023/01/21 00:41:10;;;;;;;;;;;0.90;99.90;;;;;;5004528;28;19910;-78
2023/01/21 00:43:35;;;;;;;;;;;0.90;99.90;;;;;;5003015;28;20171;-78
2023/01/21 00:46:01;;;;;;;;;;;0.80;99.90;;;;;;5002755;28;19914;-79
2023/01/21 00:48:27;;;;;;;;;;;0.80;99.90;;;;;;4984012;28;20269;-78
2023/01/21 00:50:54;;;;;;;;;;;0.80;99.90;;;;;;5001702;28;20447;-78
2023/01/21 00:53:23;;;;;;;;;;;0.80;99.90;;;;;;4983673;28;20035;-79
2023/01/21 00:55:49;;;;;;;;;;;0.70;99.90;;;;;;5001056;28;19975;-79
2023/01/21 00:58:14;;;;;;;;;;;0.60;99.90;;;;;;5001283;28;19925;-79
2023/01/21 01:00:40;;;;;;;;;;;0.70;99.90;;;;;;4983783;28;19910;-79
2023/01/21 01:03:06;;;;;;;;;;;0.80;99.90;;;;;;5001731;28;19910;-79
2023/01/21 01:05:32;;;;;;;;;;;0.60;99.90;;;;;;5000868;28;19983;-78
2023/01/21 01:07:58;;;;;;;;;;;0.50;99.90;;;;;;5001036;28;20009;-78
2023/01/21 01:10:23;;;;;;;;;;;0.60;99.90;;;;;;5001036;28;20462;-79
2023/01/21 01:12:49;;;;;;;;;;;0.60;99.90;;;;;;4983052;28;20098;-77
2023/01/21 01:15:15;;;;;;;;;;;-0.70;99.90;;;;;;4983228;28;20619;-78
2023/01/21 01:17:40;;;;;;;;;;;0.60;99.90;;;;;;5001128;28;19926;-78
2023/01/21 01:20:07;;;;;;;;;;;0.60;99.90;;;;;;4984035;28;19909;-78
2023/01/21 01:22:32;;;;;;;;;;;0.60;99.90;;;;;;4967812;28;20178;-78
2023/01/21 01:24:58;;;;;;;;;;;0.60;99.90;;;;;;4986705;28;19968;-78
2023/01/21 01:27:23;;;;;;;;;;;1.20;99.90;;;;;;5008573;28;19967;-78
2023/01/21 01:29:49;;;;;;;;;;;0.70;99.90;;;;;;4991412;28;20404;-78
2023/01/21 01:32:15;;;;;;;;;;;0.80;99.90;;;;;;5009394;28;19913;-78
2023/01/21 01:34:43;;;;;;;;;;;0.90;99.90;;;;;;5006056;28;19926;-78
2023/01/21 01:37:12;;;;;;;;;;;3.10;99.90;;;;;;4983670;28;20127;-78
2023/01/21 01:39:37;;;;;;;;;;;0.90;99.90;;;;;;4983798;28;19913;-78
2023/01/21 01:42:03;;;;;;;;;;;0.90;99.90;;;;;;4983855;28;20123;-77
2023/01/21 01:44:47;;;;;;;;;;;1.00;99.90;;;;;;4982413;28;19909;-77
2023/01/21 01:47:13;;;;;;;;;;;-0.90;99.90;;;;;;5000300;28;19913;-78
2023/01/21 01:49:39;;;;;;;;;;;1.00;99.90;;;;;;4982428;28;19910;-79
2023/01/21 01:52:06;;;;;;;;;;;1.00;99.90;;;;;;4966148;28;20454;-78
2023/01/21 01:54:36;;;;;;;;;;;0.90;99.90;;;;;;5001071;28;19909;-77
2023/01/21 01:57:03;;;;;;;;;;;1.00;99.90;;;;;;4982145;28;19921;-77
2023/01/21 01:59:29;;;;;;;;;;;1.00;99.90;;;;;;5002605;28;20370;-78
2023/01/21 02:01:56;;;;;;;;;;;1.00;99.90;;;;;;5002675;28;20161;-79
2023/01/21 02:04:25;;;;;;;;;;;1.00;99.90;;;;;;4999965;28;20508;-78
2023/01/21 02:06:52;;;;;;;;;;;1.00;99.90;;;;;;5000062;28;20008;-78
2023/01/21 02:09:18;;;;;;;;;;;1.00;99.90;;;;;;4981800;28;19940;-79
2023/01/21 02:11:43;;;;;;;;;;;1.00;99.90;;;;;;4999916;28;20207;-78
2023/01/21 02:14:09;;;;;;;;;;;1.10;99.90;;;;;;5000212;28;19910;-79
2023/01/21 02:16:45;;;;;;;;;;;1.00;99.90;;;;;;4982976;28;19909;-80
2023/01/21 02:19:11;;;;;;;;;;;1.00;99.90;;;;;;5000442;28;20011;-79
2023/01/21 02:21:55;;;;;;;;;;;2.20;99.90;;;;;;5000853;28;20408;-79
2023/01/21 02:24:33;;;;;;;;;;;0.90;99.90;;;;;;5000531;28;19929;-79
2023/01/21 02:27:01;;;;;;;;;;;0.80;99.90;;;;;;4999484;28;19920;-79
2023/01/21 02:29:48;;;;;;;;;;;0.80;99.90;;;;;;4981967;28;19957;-79
2023/01/21 02:32:23;;;;;;;;;;;-0.30;99.90;;;;;;4999154;28;20179;-78
2023/01/21 02:34:48;;;;;;;;;;;0.80;99.90;;;;;;4999893;28;20263;-79
2023/01/21 02:37:37;;;;;;;;;;;0.50;99.90;;;;;;4999192;28;20443;-79
2023/01/21 02:40:06;;;;;;;;;;;0.70;99.90;;;;;;4937879;29;19915;-79
2023/01/21 02:42:34;;;;;;;;;;;0.60;99.90;;;;;;4938104;28;20006;-78
2023/01/21 02:45:12;;;;;;;;;;;0.70;99.90;;;;;;4938061;28;19921;-78
2023/01/21 02:47:52;;;;;;;;;;;0.70;99.90;;;;;;4922267;29;20526;-79
2023/01/21 02:50:22;;;;;;;;;;;0.70;99.90;;;;;;4938225;28;19921;-78
2023/01/21 02:52:54;;;;;;;;;;;0.80;99.90;;;;;;4922322;29;20464;-79
2023/01/21 02:55:22;;;;;;;;;;;0.70;99.90;;;;;;4939059;28;20137;-79
2023/01/21 02:57:51;;;;;;;;;;;0.70;99.90;;;;;;4938183;29;19914;-79
2023/01/21 03:00:19;;;;;;;;;;;0.80;99.90;;;;;;4938970;29;19917;-78
2023/01/21 03:02:47;;;;;;;;;;;0.70;99.90;;;;;;4938858;29;20109;-80
2023/01/21 03:05:13;;;;;;;;;;;0.80;99.90;;;;;;4937866;28;19918;-78
2023/01/21 03:07:50;;;;;;;;;;;0.80;99.90;;;;;;4922247;29;19910;-79
2023/01/21 03:10:19;;;;;;;;;;;0.80;99.90;;;;;;4938051;28;20197;-78
2023/01/21 03:13:02;;;;;;;;;;;0.80;99.90;;;;;;4921936;29;19959;-79
2023/01/21 03:18:22;;;;;;;;;;;0.70;99.90;;;;;;4995372;28;20526;-80
2023/01/21 03:20:51;;;;;;;;;;;0.70;99.90;;;;;;5000152;28;19913;-79
2023/01/21 03:23:21;;;;;;;;;;;0.70;99.90;;;;;;5000129;28;20157;-79
2023/01/21 03:25:47;;;;;;;;;;;0.70;99.90;;;;;;4999946;28;19920;-79
2023/01/21 03:28:16;;;;;;;;;;;0.70;99.90;;;;;;4999739;28;19917;-79
2023/01/21 03:30:44;;;;;;;;;;;-0.80;99.90;;;;;;5002032;28;20130;-80
2023/01/21 03:33:11;;;;;;;;;;;0.50;99.90;;;;;;5000810;28;19940;-79
2023/01/21 03:35:39;;;;;;;;;;;0.50;99.90;;;;;;5000150;28;20256;-79
2023/01/21 03:38:10;;;;;;;;;;;0.40;99.90;;;;;;5005106;28;19921;-79
2023/01/21 03:40:43;;;;;;;;;;;0.30;99.90;;;;;;4981510;28;20265;-79
2023/01/21 03:43:09;;;;;;;;;;;0.40;99.90;;;;;;4999637;28;20395;-79
2023/01/21 03:45:39;;;;;;;;;;;0.90;99.90;;;;;;4999227;28;19909;-79
2023/01/21 03:48:10;;;;;;;;;;;0.40;99.90;;;;;;4980889;28;19967;-79
2023/01/21 03:50:38;;;;;;;;;;;0.30;99.90;;;;;;4998771;28;19909;-79
2023/01/21 03:53:05;;;;;;;;;;;0.30;99.90;;;;;;4981268;28;19925;-78
2023/01/21 03:55:30;;;;;;;;;;;0.30;99.90;;;;;;4999053;28;19909;-79
2023/01/21 03:57:56;;;;;;;;;;;0.10;99.90;;;;;;4980581;28;20296;-79
2023/01/21 04:00:21;;;;;;;;;;;0.00;99.90;;;;;;4998172;28;19945;-79
2023/01/21 04:02:47;;;;;;;;;;;0.10;99.90;;;;;;4997943;28;20314;-79
2023/01/21 04:05:13;;;;;;;;;;;0.00;99.90;;;;;;4998130;28;20295;-79
2023/01/21 04:07:38;;;;;;;;;;;0.00;99.90;;;;;;5000836;28;20025;-78
2023/01/21 04:10:04;;;;;;;;;;;-0.10;99.90;;;;;;5002295;28;20625;-79
2023/01/21 04:12:30;;;;;;;;;;;0.00;99.90;;;;;;5002330;28;19920;-79
2023/01/21 04:14:57;;;;;;;;;;;0.00;99.90;;;;;;4985328;28;19909;-79
2023/01/21 04:17:22;;;;;;;;;;;0.00;99.90;;;;;;5002058;28;19917;-79
2023/01/21 04:19:48;;;;;;;;;;;0.10;99.90;;;;;;5002597;28;20388;-79
2023/01/21 04:22:13;;;;;;;;;;;0.00;99.90;;;;;;4985233;28;19910;-80
2023/01/21 04:24:39;;;;;;;;;;;0.20;99.90;;;;;;5002440;28;20425;-79
2023/01/21 04:27:05;;;;;;;;;;;0.10;99.90;;;;;;5002314;28;19910;-78
2023/01/21 04:29:30;;;;;;;;;;;0.10;99.90;;;;;;5002979;28;19988;-80
2023/01/21 04:31:56;;;;;;;;;;;0.10;99.90;;;;;;5003939;28;20412;-79
2023/01/21 04:34:22;;;;;;;;;;;0.10;99.90;;;;;;5004671;28;19920;-78
2023/01/21 04:36:48;;;;;;;;;;;0.00;99.90;;;;;;4992724;28;19910;-78
2023/01/21 04:39:13;;;;;;;;;;;0.00;99.90;;;;;;5009287;28;20423;-79
2023/01/21 04:41:39;;;;;;;;;;;-0.10;99.90;;;;;;5009944;28;19909;-79
2023/01/21 04:44:06;;;;;;;;;;;-0.10;99.90;;;;;;5008295;28;19909;-79
2023/01/21 04:46:31;;;;;;;;;;;0.00;99.90;;;;;;5004336;28;19946;-79
2023/01/21 04:48:57;;;;;;;;;;;0.10;99.90;;;;;;5002501;28;20250;-79
2023/01/21 04:51:22;;;;;;;;;;;0.00;99.90;;;;;;5002947;28;19968;-78
2023/01/21 04:53:48;;;;;;;;;;;0.00;99.90;;;;;;5002128;28;20396;-79
2023/01/21 04:56:16;;;;;;;;;;;-0.10;99.90;;;;;;5002519;28;19909;-80
2023/01/21 04:58:42;;;;;;;;;;;-0.10;99.90;;;;;;5002235;28;20020;-79
2023/01/21 05:01:07;;;;;;;;;;;-0.10;99.90;;;;;;5001287;28;19996;-78
2023/01/21 05:03:33;;;;;;;;;;;-0.20;99.90;;;;;;4982723;28;19910;-78
2023/01/21 05:05:58;;;;;;;;;;;-0.10;99.90;;;;;;5001390;28;20195;-79
2023/01/21 05:08:24;;;;;;;;;;;-0.10;99.90;;;;;;4984368;28;19945;-79
2023/01/21 05:10:49;;;;;;;;;;;-0.10;99.90;;;;;;4984644;28;19910;-79
2023/01/21 05:13:15;;;;;;;;;;;-0.20;99.90;;;;;;4983971;28;19984;-79
2023/01/21 05:15:41;;;;;;;;;;;0.00;99.90;;;;;;5001225;28;19925;-79
2023/01/21 05:18:06;;;;;;;;;;;-0.20;99.90;;;;;;4983744;28;20162;-80
2023/01/21 05:20:32;;;;;;;;;;;-0.10;99.90;;;;;;5000542;28;19913;-79
2023/01/21 05:22:57;;;;;;;;;;;-0.20;99.90;;;;;;5001664;28;19920;-79
2023/01/21 05:25:23;;;;;;;;;;;-0.30;99.90;;;;;;5002103;28;19913;-79
2023/01/21 05:27:52;;;;;;;;;;;-0.30;99.90;;;;;;5000876;28;19956;-79
2023/01/21 05:30:18;;;;;;;;;;;-0.30;99.90;;;;;;4983415;28;19917;-79
2023/01/21 05:32:44;;;;;;;;;;;-0.40;99.90;;;;;;5000278;28;20141;-78
2023/01/21 05:35:10;;;;;;;;;;;-0.40;99.90;;;;;;5000631;28;19913;-78
2023/01/21 05:37:36;;;;;;;;;;;-0.40;99.90;;;;;;4983230;28;19917;-79
2023/01/21 05:40:02;;;;;;;;;;;-0.40;99.90;;;;;;4983201;28;20194;-79
2023/01/21 05:42:28;;;;;;;;;;;-0.40;99.90;;;;;;5002114;28;19932;-78
2023/01/21 05:44:53;;;;;;;;;;;-0.40;99.90;;;;;;5000921;28;19909;-79
2023/01/21 05:47:19;;;;;;;;;;;-0.40;99.90;;;;;;4984226;28;19920;-79
2023/01/21 05:49:44;;;;;;;;;;;-0.40;99.90;;;;;;4988668;28;19967;-79
2023/01/21 05:52:10;;;;;;;;;;;-0.40;99.90;;;;;;5005667;28;19916;-79
2023/01/21 05:54:36;;;;;;;;;;;-0.40;99.90;;;;;;5003975;28;19916;-79
2023/01/21 05:57:01;;;;;;;;;;;-0.40;99.90;;;;;;4983424;28;19909;-79
2023/01/21 05:59:27;;;;;;;;;;;-0.50;99.90;;;;;;4982518;28;19924;-78
2023/01/21 06:01:54;;;;;;;;;;;-0.50;99.90;;;;;;4982842;28;20183;-78
2023/01/21 06:04:19;;;;;;;;;;;-0.60;99.90;;;;;;5000858;28;19909;-79
2023/01/21 06:06:45;;;;;;;;;;;-0.70;99.90;;;;;;5002026;28;19920;-79
2023/01/21 06:09:10;;;;;;;;;;;-0.60;99.90;;;;;;4984352;28;19996;-80
2023/01/21 06:11:40;;;;;;;;;;;-0.60;99.90;;;;;;5001421;28;19914;-78
2023/01/21 06:14:11;;;;;;;;;;;-0.60;99.90;;;;;;5004280;28;19920;-80
2023/01/21 06:16:36;;;;;;;;;;;-0.80;99.90;;;;;;5003592;28;20004;-79
2023/01/21 06:19:04;;;;;;;;;;;-0.50;99.90;;;;;;5002626;28;20479;-79
2023/01/21 06:21:29;;;;;;;;;;;-0.50;99.90;;;;;;4984058;28;19916;-78
2023/01/21 06:23:56;;;;;;;;;;;-0.40;99.90;;;;;;4984563;28;19925;-79
2023/01/21 06:26:21;;;;;;;;;;;-0.40;99.90;;;;;;5003346;28;19909;-79
2023/01/21 06:28:47;;;;;;;;;;;-0.50;99.90;;;;;;4985182;28;19917;-79
2023/01/21 06:31:13;;;;;;;;;;;-0.40;99.90;;;;;;4983657;28;20051;-80
2023/01/21 06:33:38;;;;;;;;;;;-0.40;99.90;;;;;;5001094;28;19962;-79
2023/01/21 06:36:04;;;;;;;;;;;-0.40;99.90;;;;;;5002372;28;19917;-78
2023/01/21 06:38:30;;;;;;;;;;;-0.40;99.90;;;;;;5001033;28;19944;-79
2023/01/21 06:40:56;;;;;;;;;;;-0.50;99.90;;;;;;4983116;28;19916;-79
2023/01/21 06:43:22;;;;;;;;;;;-0.50;99.90;;;;;;4983189;28;19916;-79
2023/01/21 06:45:50;;;;;;;;;;;-0.50;99.90;;;;;;5001261;28;19909;-79
2023/01/21 06:48:16;;;;;;;;;;;-0.60;99.90;;;;;;5002669;28;19917;-79
2023/01/21 06:50:42;;;;;;;;;;;-0.60;99.90;;;;;;5001062;28;19919;-78
2023/01/21 06:53:07;;;;;;;;;;;-0.70;99.90;;;;;;5001418;28;20273;-78
2023/01/21 06:55:33;;;;;;;;;;;-0.60;99.90;;;;;;5001468;28;19909;-79
2023/01/21 06:57:59;;;;;;;;;;;-0.50;99.90;;;;;;4983232;28;19928;-79
2023/01/21 07:00:25;;;;;;;;;;;-0.60;99.90;;;;;;5003472;28;19921;-79
2023/01/21 07:02:54;;;;;;;;;;;-0.70;99.90;;;;;;5009474;28;19909;-79
2023/01/21 07:05:22;;;;;;;;;;;-0.60;99.90;;;;;;5008681;28;19929;-79
2023/01/21 07:07:48;;;;;;;;;;;-0.70;99.90;;;;;;4990155;28;20492;-79
2023/01/21 07:10:14;;;;;;;;;;;-0.60;99.90;;;;;;4989575;28;20225;-78
2023/01/21 07:12:39;;;;;;;;;;;-0.60;99.90;;;;;;5007942;28;19916;-78
2023/01/21 07:15:05;;;;;;;;;;;-0.50;99.90;;;;;;5009291;28;19909;-79
2023/01/21 07:17:32;;;;;;;;;;;-0.40;99.90;;;;;;5010297;28;20044;-78
2023/01/21 07:19:58;;;;;;;;;;;-0.40;99.90;;;;;;5011131;28;19913;-78
2023/01/21 07:22:25;;;;;;;;;;;-0.30;99.90;;;;;;4990205;28;19916;-79
2023/01/21 07:24:53;;;;;;;;;;;-0.20;99.90;;;;;;4990054;28;20239;-79
2023/01/21 07:27:18;;;;;;;;;;;-0.20;99.90;;;;;;5007194;28;20064;-79
2023/01/21 07:29:44;;;;;;;;;;;-0.10;99.90;;;;;;5002103;28;19917;-78
2023/01/21 07:32:09;;;;;;;;;;;-0.10;99.90;;;;;;5001929;28;20009;-79
2023/01/21 07:34:35;;;;;;;;;;;-0.10;99.90;;;;;;5002081;28;19996;-78
2023/01/21 07:37:01;;;;;;;;;;;0.00;99.90;;;;;;4985681;28;19910;-78
2023/01/21 07:39:26;;;;;;;;;;;0.10;99.90;;;;;;4985677;28;20466;-79
2023/01/21 07:41:52;;;;;;;;;;;0.00;99.90;;;;;;4992300;28;19909;-80
2023/01/21 07:44:18;;;;;;;;;;;0.00;99.90;;;;;;5017252;28;19921;-79
2023/01/21 07:46:43;;;;;;;;;;;0.00;99.90;;;;;;5000355;28;20408;-79
2023/01/21 07:49:11;;;;;;;;;;;0.00;99.90;;;;;;5016127;28;19913;-80
2023/01/21 07:51:37;;;;;;;;;;;0.00;99.90;;;;;;5013220;28;19909;-79
2023/01/21 07:54:06;;;;;;;;;;;-0.10;99.90;;;;;;4993241;28;19916;-79
2023/01/21 07:56:31;;;;;;;;;;;-1.90;99.90;;;;;;4991232;28;20403;-79
2023/01/21 07:58:57;;;;;;;;;;;0.10;99.90;;;;;;4991690;28;19933;-80
2023/01/21 08:01:25;;;;;;;;;;;0.10;99.90;;;;;;5011358;28;20300;-79
2023/01/21 08:03:51;;;;;;;;;;;0.10;99.90;;;;;;5009952;28;19917;-79
2023/01/21 08:06:16;;;;;;;;;;;0.10;99.90;;;;;;5012205;28;19917;-79
2023/01/21 08:08:42;;;;;;;;;;;0.10;99.90;;;;;;5010181;28;20119;-79
2023/01/21 08:11:08;;;;;;;;;;;0.10;99.90;;;;;;5011266;28;20359;-78
2023/01/21 08:13:35;;;;;;;;;;;0.00;99.90;;;;;;5011960;28;19986;-78
2023/01/21 08:16:01;;;;;;;;;;;-0.10;99.90;;;;;;4991424;28;20231;-79
2023/01/21 08:18:27;;;;;;;;;;;-0.10;99.90;;;;;;4989988;28;19952;-79
2023/01/21 08:20:56;;;;;;;;;;;0.00;99.90;;;;;;5008477;28;19913;-79
2023/01/21 08:23:22;;;;;;;;;;;0.00;99.90;;;;;;5006992;28;20266;-79
2023/01/21 08:25:48;;;;;;;;;;;0.10;99.90;;;;;;4991298;28;19969;-78
2023/01/21 08:28:14;;;;;;;;;;;0.10;99.90;;;;;;5010451;28;20028;-79
2023/01/21 08:30:39;;;;;;;;;;;0.10;99.90;;;;;;5009918;28;20114;-79
2023/01/21 08:33:05;;;;;;;;;;;-0.10;99.90;;;;;;5009441;28;20308;-79
2023/01/21 08:35:30;;;;;;;;;;;0.00;99.90;;;;;;5007799;28;20375;-79
2023/01/21 08:37:56;;;;;;;;;;;0.10;99.90;;;;;;5006018;28;19914;-79
2023/01/21 08:40:24;;;;;;;;;;;0.20;99.90;;;;;;4987874;28;19939;-79
2023/01/21 08:42:50;;;;;;;;;;;0.30;99.90;;;;;;5006218;28;19932;-80
2023/01/21 08:45:15;;;;;;;;;;;0.30;99.90;;;;;;5006915;28;19910;-80
2023/01/21 08:47:41;;;;;;;;;;;0.40;99.90;;;;;;5007447;28;19919;-79
2023/01/21 08:50:08;;;;;;;;;;;0.40;99.90;;;;;;5007539;28;19983;-79
2023/01/21 08:52:34;;;;;;;;;;;0.40;99.90;;;;;;5007768;28;20075;-80
2023/01/21 08:54:59;;;;;;;;;;;0.60;99.90;;;;;;5007404;28;19914;-80
2023/01/21 08:57:25;;;;;;;;;;;0.70;99.90;;;;;;5008337;28;20099;-80
2023/01/21 08:59:51;;;;;;;;;;;0.70;99.90;;;;;;5010546;28;19909;-79
2023/01/21 09:02:17;;;;;;;;;;;0.90;99.90;;;;;;5007135;28;19913;-80
2023/01/21 09:04:42;;;;;;;;;;;0.80;99.90;;;;;;4987329;28;19921;-78
2023/01/21 09:07:08;;;;;;;;;;;0.80;99.90;;;;;;5003898;28;19920;-79
2023/01/21 09:09:34;;;;;;;;;;;0.80;99.90;;;;;;5007166;28;20276;-79
2023/01/21 09:11:59;;;;;;;;;;;0.90;99.90;;;;;;5010109;28;19909;-78
2023/01/21 09:14:25;;;;;;;;;;;0.90;99.90;;;;;;4987541;28;19905;-77
2023/01/21 09:16:51;;;;;;;;;;;1.10;99.90;;;;;;5004382;28;19909;-78
2023/01/21 09:19:17;;;;;;;;;;;0.70;99.90;;;;;;5004090;28;19925;-78
2023/01/21 09:21:45;;;;;;;;;;;1.20;99.90;;;;;;5002794;28;19905;-77
2023/01/21 09:24:12;;;;;;;;;;;1.30;99.90;;;;;;5006684;28;19921;-78
2023/01/21 09:26:42;;;;;;;;;;;1.40;99.90;;;;;;4985356;28;20033;-78
2023/01/21 09:29:08;;;;;;;;;;;1.50;99.90;;;;;;5002399;28;19996;-78
2023/01/21 09:31:34;;;;;;;;;;;1.60;99.90;;;;;;5005294;28;19952;-77
2023/01/21 09:34:02;;;;;;;;;;;1.50;99.90;;;;;;4985751;28;19909;-77
2023/01/21 09:36:29;;;;;;;;;;;1.20;99.90;;;;;;5002324;28;19917;-78
2023/01/21 09:38:55;;;;;;;;;;;1.30;99.90;;;;;;5002821;28;19918;-77
2023/01/21 09:41:23;;;;;;;;;;;1.70;99.90;;;;;;5002773;28;19906;-78
2023/01/21 09:44:09;;;;;;;;;;;1.20;99.90;;;;;;5003052;28;19916;-78
2023/01/21 09:46:38;;;;;;;;;;;1.20;99.90;;;;;;5003902;28;19912;-78
2023/01/21 09:49:05;;;;;;;;;;;1.20;99.90;;;;;;5003398;28;20587;-78
2023/01/21 09:51:43;;;;;;;;;;;1.20;99.90;;;;;;4985358;28;19906;-79
2023/01/21 09:54:14;;;;;;;;;;;1.10;99.90;;;;;;5002101;28;19906;-78
2023/01/21 09:56:53;;;;;;;;;;;1.10;99.90;;;;;;4987454;28;19909;-78
2023/01/21 09:59:33;;;;;;;;;;;1.10;99.90;;;;;;5002671;28;20000;-77
2023/01/21 10:02:00;;;;;;;;;;;1.00;99.90;;;;;;5003476;28;19941;-78
2023/01/21 10:04:28;;;;;;;;;;;-0.40;99.90;;;;;;5002507;28;19968;-77
2023/01/21 10:07:06;;;;;;;;;;;1.20;99.90;;;;;;5003251;28;19925;-78
2023/01/21 10:09:38;;;;;;;;;;;1.20;99.90;;;;;;5004364;28;20182;-76
2023/01/21 10:12:17;;;;;;;;;;;0.40;99.90;;;;;;4987041;28;20545;-77
2023/01/21 10:14:55;;;;;;;;;;;1.20;99.90;;;;;;4986263;28;19975;-78
2023/01/21 10:17:50;;;;;;;;;;;1.30;99.90;;;;;;4984547;28;19972;-77
2023/01/21 10:20:27;;;;;;;;;;;1.20;99.90;;;;;;4986064;28;19921;-77
2023/01/21 10:23:04;;;;;;;;;;;1.50;99.90;;;;;;5002861;28;19917;-77
2023/01/21 10:25:31;;;;;;;;;;;1.10;99.90;;;;;;5004568;28;19906;-77
2023/01/21 10:27:58;;;;;;;;;;;0.90;99.90;;;;;;4986683;28;19905;-77
2023/01/21 10:30:41;;;;;;;;;;;0.90;99.90;;;;;;5001429;28;20540;-77
2023/01/21 10:33:14;;;;;;;;;;;1.00;99.90;;;;;;4985199;28;19906;-77
2023/01/21 10:35:46;;;;;;;;;;;1.00;99.90;;;;;;5006084;28;19920;-77
2023/01/21 10:38:11;;;;;;;;;;;1.00;99.90;;;;;;4985230;28;19967;-77
2023/01/21 10:40:52;;;;;;;;;;;1.10;99.90;;;;;;4985821;28;19918;-78
2023/01/21 10:43:27;;;;;;;;;;;1.10;99.90;;;;;;5001143;28;20166;-77
2023/01/21 10:46:11;;;;;;;;;;;3.70;99.90;;;;;;5004892;28;20003;-78
2023/01/21 10:48:39;;;;;;;;;;;1.30;99.90;;;;;;5005593;28;19905;-77
2023/01/21 10:51:31;;;;;;;;;;;1.40;99.90;;;;;;5008045;28;19913;-77
2023/01/21 10:54:08;;;;;;;;;;;1.40;99.90;;;;;;4993498;28;19936;-78
2023/01/21 10:56:40;;;;;;;;;;;1.40;99.90;;;;;;5011617;28;19905;-77
2023/01/21 10:59:11;;;;;;;;;;;1.50;99.90;;;;;;5008930;28;19918;-76
2023/01/21 11:01:48;;;;;;;;;;;0.90;99.90;;;;;;5008235;28;20566;-77
2023/01/21 11:04:21;;;;;;;;;;;1.30;99.90;;;;;;5017883;28;20115;-77
2023/01/21 11:07:07;;;;;;;;;;;1.10;99.90;;;;;;4989564;28;19918;-77
2023/01/21 11:09:37;;;;;;;;;;;1.00;99.90;;;;;;4985920;28;19932;-76
2023/01/21 11:12:02;;;;;;;;;;;0.80;99.90;;;;;;5002690;28;19944;-77
2023/01/21 11:14:28;;;;;;;;;;;0.70;99.90;;;;;;5001547;28;20014;-77
2023/01/21 11:16:54;;;;;;;;;;;0.50;99.90;;;;;;5002222;28;19935;-78
2023/01/21 11:19:23;;;;;;;;;;;0.30;99.90;;;;;;5005393;28;19991;-78
2023/01/21 11:22:03;;;;;;;;;;;0.30;99.90;;;;;;5003051;28;19906;-77
2023/01/21 11:24:29;;;;;;;;;;;0.20;99.90;;;;;;4985548;28;19938;-77
2023/01/21 11:26:57;;;;;;;;;;;0.20;99.90;;;;;;4984572;28;19909;-77
2023/01/21 11:29:23;;;;;;;;;;;0.30;99.90;;;;;;5002721;28;19912;-77
2023/01/21 11:31:51;;;;;;;;;;;0.50;99.90;;;;;;4984884;28;19909;-77
2023/01/21 11:34:20;;;;;;;;;;;0.50;99.90;;;;;;5002686;28;19949;-77
2023/01/21 11:37:18;;;;;;;;;;;0.50;99.90;;;;;;5001839;28;19918;-77
2023/01/21 11:39:49;;;;;;;;;;;0.70;99.90;;;;;;4940729;29;19914;-77
2023/01/21 11:42:16;;;;;;;;;;;-0.20;99.90;;;;;;4944249;29;20413;-77
2023/01/21 11:44:51;;;;;;;;;;;0.50;99.90;;;;;;4942319;28;19964;-76
2023/01/21 11:47:46;;;;;;;;;;;0.50;99.90;;;;;;4943446;28;20002;-77
2023/01/21 11:50:16;;;;;;;;;;;0.50;99.90;;;;;;4921513;29;20117;-76
2023/01/21 11:52:42;;;;;;;;;;;0.60;99.90;;;;;;4920849;29;19911;-76
2023/01/21 11:55:18;;;;;;;;;;;0.70;99.90;;;;;;4921726;29;19907;-77
2023/01/21 11:57:48;;;;;;;;;;;0.80;99.90;;;;;;4922379;29;19958;-77
2023/01/21 12:00:18;;;;;;;;;;;0.80;99.90;;;;;;4923188;29;19911;-77
2023/01/21 12:02:46;;;;;;;;;;;0.90;99.90;;;;;;4921289;29;19965;-77
2023/01/21 12:05:14;;;;;;;;;;;1.00;99.90;;;;;;4922040;28;20500;-76
2023/01/21 12:07:41;;;;;;;;;;;1.00;99.90;;;;;;4924548;29;19911;-77
2023/01/21 12:10:23;;;;;;;;;;;4.40;99.90;;;;;;4926647;29;19935;-77
2023/01/21 12:12:48;;;;;;;;;;;1.00;99.90;;;;;;4927803;29;20455;-76
2023/01/21 12:15:26;;;;;;;;;;;1.00;99.90;;;;;;4941810;28;19910;-77
2023/01/21 12:18:12;;;;;;;;;;;1.10;99.90;;;;;;4965081;28;20617;-77
2023/01/21 12:20:53;;;;;;;;;;;1.20;99.90;;;;;;4945645;28;20009;-76
2023/01/21 12:23:25;;;;;;;;;;;4.10;99.90;;;;;;4944865;29;19918;-76
2023/01/21 12:25:55;;;;;;;;;;;1.30;99.90;;;;;;4944257;28;21871;-76
2023/01/21 12:28:33;;;;;;;;;;;1.30;99.90;;;;;;4942337;28;19910;-76
2023/01/21 12:31:11;;;;;;;;;;;1.30;99.90;;;;;;4962609;28;19965;-76
2023/01/21 12:33:55;;;;;;;;;;;1.30;99.90;;;;;;4949377;28;19908;-77
2023/01/21 12:36:23;;;;;;;;;;;1.50;99.90;;;;;;4947426;28;19910;-76
2023/01/21 12:38:53;;;;;;;;;;;1.30;99.90;;;;;;4962694;28;19934;-76
2023/01/21 12:41:21;;;;;;;;;;;1.30;99.90;;;;;;4962473;28;20013;-76
2023/01/21 12:43:50;;;;;;;;;;;1.30;99.90;;;;;;4961063;28;19906;-78
2023/01/21 12:46:19;;;;;;;;;;;1.90;99.90;;;;;;4961749;28;19913;-76
2023/01/21 12:48:47;;;;;;;;;;;1.60;99.90;;;;;;4962344;28;19906;-76
2023/01/21 12:51:15;;;;;;;;;;;1.90;99.90;;;;;;4962921;28;20010;-76
2023/01/21 12:53:44;;;;;;;;;;;2.00;99.90;;;;;;4963217;28;19938;-76
2023/01/21 12:56:16;;;;;;;;;;;2.00;99.90;;;;;;4962996;28;20005;-75
2023/01/21 12:58:50;;;;;;;;;;;1.90;99.90;;;;;;5001748;28;20004;-76
2023/01/21 13:01:21;;;;;;;;;;;1.70;99.90;;;;;;5004580;28;19912;-76
2023/01/21 13:04:05;;;;;;;;;;;1.70;99.90;;;;;;4988785;28;20577;-76
2023/01/21 13:06:34;;;;;;;;;;;1.60;99.90;;;;;;4986231;28;19905;-76
2023/01/21 13:08:59;;;;;;;;;;;1.60;99.90;;;;;;4986059;28;19918;-76
2023/01/21 13:11:28;;;;;;;;;;;1.50;99.90;;;;;;5002921;28;19905;-77
2023/01/21 13:13:53;;;;;;;;;;;1.40;99.90;;;;;;5004448;28;20570;-76
2023/01/21 13:16:20;;;;;;;;;;;1.40;99.90;;;;;;4987054;28;20005;-76
2023/01/21 13:18:50;;;;;;;;;;;1.20;99.90;;;;;;5004587;28;19993;-77
2023/01/21 13:21:34;;;;;;;;;;;1.20;99.90;;;;;;5005447;28;20568;-76
2023/01/21 13:24:18;;;;;;;;;;;1.20;99.90;;;;;;5006286;28;20034;-76
2023/01/21 13:26:47;;;;;;;;;;;1.10;99.90;;;;;;4989863;28;19979;-76
2023/01/21 13:29:28;;;;;;;;;;;1.20;99.90;;;;;;5003979;28;19912;-76
2023/01/21 13:31:59;;;;;;;;;;;1.30;99.90;;;;;;5004469;28;19912;-77
2023/01/21 13:34:36;;;;;;;;;;;1.20;99.90;;;;;;4986908;28;19914;-76
2023/01/21 13:37:05;;;;;;;;;;;1.30;99.90;;;;;;5004702;28;19921;-76
2023/01/21 13:39:30;;;;;;;;;;;1.40;99.90;;;;;;4986667;28;20178;-76
2023/01/21 13:42:00;;;;;;;;;;;1.30;99.90;;;;;;4986787;28;19906;-77
2023/01/21 13:44:26;;;;;;;;;;;1.40;99.90;;;;;;5003398;28;19912;-76
2023/01/21 13:47:10;;;;;;;;;;;1.40;99.90;;;;;;4989192;28;19910;-76
2023/01/21 13:49:59;;;;;;;;;;;1.40;99.90;;;;;;4986355;28;19942;-76
2023/01/21 13:52:36;;;;;;;;;;;1.50;99.90;;;;;;4944479;29;19965;-76
2023/01/21 13:55:22;;;;;;;;;;;1.70;99.90;;;;;;4926481;29;20460;-75
2023/01/21 13:57:53;;;;;;;;;;;1.70;99.90;;;;;;4943771;28;19910;-76
2023/01/21 14:00:19;;;;;;;;;;;1.70;99.90;;;;;;4941739;29;19914;-76
2023/01/21 14:02:44;;;;;;;;;;;1.60;99.90;;;;;;4925710;29;19921;-76
2023/01/21 14:05:19;;;;;;;;;;;1.70;99.90;;;;;;4941363;28;20051;-76
2023/01/21 14:07:46;;;;;;;;;;;1.70;99.90;;;;;;4945688;29;20009;-76
2023/01/21 14:10:25;;;;;;;;;;;1.60;99.90;;;;;;4912254;29;19910;-76
2023/01/21 14:13:09;;;;;;;;;;;1.60;99.90;;;;;;4943323;29;19907;-76
2023/01/21 14:15:46;;;;;;;;;;;1.50;99.90;;;;;;4945011;28;20001;-76
2023/01/21 14:18:30;;;;;;;;;;;1.50;99.90;;;;;;4943408;29;19915;-76
2023/01/21 14:21:06;;;;;;;;;;;1.50;99.90;;;;;;4948702;28;20021;-76
2023/01/21 14:23:38;;;;;;;;;;;1.50;99.90;;;;;;4943078;29;19914;-76
2023/01/21 14:26:30;;;;;;;;;;;1.50;99.90;;;;;;4941912;28;19922;-76
2023/01/21 14:29:04;;;;;;;;;;;1.40;99.90;;;;;;4899064;29;19907;-76
2023/01/21 14:31:33;;;;;;;;;;;1.40;99.90;;;;;;4908440;29;19954;-76
2023/01/21 14:34:05;;;;;;;;;;;1.30;99.90;;;;;;4903375;29;19947;-76
2023/01/21 14:36:34;;;;;;;;;;;1.30;99.90;;;;;;4905975;29;20006;-75
2023/01/21 14:39:29;;;;;;;;;;;1.40;99.90;;;;;;4902646;29;19934;-76
2023/01/21 14:42:05;;;;;;;;;;;1.40;99.90;;;;;;4849018;29;19912;-75